sensor_id;sensor_type;location;lat;lon;timestamp;pressure;altitude;pressure_sealevel;temperature;humidity
6393;BME280;3229;42.674;23.282;2023-02-13T00:01:11;96326.97;;;5.60;56.25
6393;BME280;3229;42.674;23.282;2023-02-13T00:03:38;96326.28;;;5.57;56.34
6393;BME280;3229;42.674;23.282;2023-02-13T00:06:05;96335.38;;;5.62;56.26
6393;BME280;3229;42.674;23.282;2023-02-13T00:08:32;96331.16;;;5.61;56.25
6393;BME280;3229;42.674;23.282;2023-02-13T00:10:59;96334.38;;;5.65;56.38
6393;BME280;3229;42.674;23.282;2023-02-13T00:13:26;96330.22;;;5.64;56.31
6393;BME280;3229;42.674;23.282;2023-02-13T00:15:56;96304.81;;;5.45;56.45
6393;BME280;3229;42.674;23.282;2023-02-13T00:18:25;96332.66;;;5.65;56.55
6393;BME280;3229;42.674;23.282;2023-02-13T00:20:59;96336.88;;;5.66;56.41
6393;BME280;3229;42.674;23.282;2023-02-13T00:23:26;96330.09;;;5.67;56.44
6393;BME280;3229;42.674;23.282;2023-02-13T00:25:54;96334.25;;;5.68;56.31
6393;BME280;3229;42.674;23.282;2023-02-13T00:28:21;96335.09;;;5.68;56.48
6393;BME280;3229;42.674;23.282;2023-02-13T00:30:48;96335.91;;;5.69;56.67
6393;BME280;3229;42.674;23.282;2023-02-13T00:33:14;96320.47;;;5.54;56.46
6393;BME280;3229;42.674;23.282;2023-02-13T00:35:42;96348.53;;;5.70;56.58
6393;BME280;3229;42.674;23.282;2023-02-13T00:38:09;96343.47;;;5.70;56.45
6393;BME280;3229;42.674;23.282;2023-02-13T00:40:36;96348.53;;;5.70;56.64
6393;BME280;3229;42.674;23.282;2023-02-13T00:43:03;96341.75;;;5.71;56.45
6393;BME280;3229;42.674;23.282;2023-02-13T00:45:29;96349.28;;;5.72;56.50
6393;BME280;3229;42.674;23.282;2023-02-13T00:47:56;96345.03;;;5.73;56.34
6393;BME280;3229;42.674;23.282;2023-02-13T00:50:23;96350.94;;;5.73;56.50
6393;BME280;3229;42.674;23.282;2023-02-13T00:52:51;96348.38;;;5.73;56.45
6393;BME280;3229;42.674;23.282;2023-02-13T00:55:18;96346.66;;;5.74;56.42
6393;BME280;3229;42.674;23.282;2023-02-13T00:57:45;96349.28;;;5.72;56.44
6393;BME280;3229;42.674;23.282;2023-02-13T01:00:12;96353.47;;;5.73;56.58
6393;BME280;3229;42.674;23.282;2023-02-13T01:02:39;96353.47;;;5.73;56.49
6393;BME280;3229;42.674;23.282;2023-02-13T01:05:07;96356.00;;;5.73;56.56
6393;BME280;3229;42.674;23.282;2023-02-13T01:07:33;96355.06;;;5.76;56.43
6393;BME280;3229;42.674;23.282;2023-02-13T01:10:02;96360.06;;;5.77;56.48
6393;BME280;3229;42.674;23.282;2023-02-13T01:12:28;96358.28;;;5.79;56.39
6393;BME280;3229;42.674;23.282;2023-02-13T01:14:55;96357.41;;;5.81;56.46
6393;BME280;3229;42.674;23.282;2023-02-13T01:17:22;96343.88;;;5.80;56.40
6393;BME280;3229;42.674;23.282;2023-02-13T01:19:49;96356.38;;;5.85;56.39
6393;BME280;3229;42.674;23.282;2023-02-13T01:22:15;96357.97;;;5.87;56.37
6393;BME280;3229;42.674;23.282;2023-02-13T01:24:42;96353.63;;;5.89;56.53
6393;BME280;3229;42.674;23.282;2023-02-13T01:27:10;96361.97;;;5.91;56.47
6393;BME280;3229;42.674;23.282;2023-02-13T01:29:37;96361.06;;;5.94;56.38
6393;BME280;3229;42.674;23.282;2023-02-13T01:32:04;96356.69;;;5.97;56.51
6393;BME280;3229;42.674;23.282;2023-02-13T01:34:31;96358.25;;;6.00;56.36
6393;BME280;3229;42.674;23.282;2023-02-13T01:36:58;96367.44;;;6.02;56.60
6393;BME280;3229;42.674;23.282;2023-02-13T01:39:25;96370.75;;;6.05;56.65
6393;BME280;3229;42.674;23.282;2023-02-13T01:41:52;96362.09;;;6.09;56.40
6393;BME280;3229;42.674;23.282;2023-02-13T01:44:46;96370.41;;;6.12;56.54
6393;BME280;3229;42.674;23.282;2023-02-13T01:47:15;96370.34;;;6.14;56.70
6393;BME280;3229;42.674;23.282;2023-02-13T01:49:44;96366.81;;;6.16;56.68
6393;BME280;3229;42.674;23.282;2023-02-13T01:52:13;96362.66;;;6.15;56.48
6393;BME280;3229;42.674;23.282;2023-02-13T01:54:40;96330.31;;;6.00;56.59
6393;BME280;3229;42.674;23.282;2023-02-13T01:57:10;96373.19;;;6.25;56.61
6393;BME280;3229;42.674;23.282;2023-02-13T01:59:43;96369.84;;;6.24;56.62
6393;BME280;3229;42.674;23.282;2023-02-13T02:02:13;96376.34;;;6.30;56.64
6393;BME280;3229;42.674;23.282;2023-02-13T02:04:41;96374.50;;;6.34;56.66
6393;BME280;3229;42.674;23.282;2023-02-13T02:07:10;96371.91;;;6.35;56.50
6393;BME280;3229;42.674;23.282;2023-02-13T02:09:42;96374.28;;;6.38;56.72
6393;BME280;3229;42.674;23.282;2023-02-13T02:12:19;96371.69;;;6.40;56.70
6393;BME280;3229;42.674;23.282;2023-02-13T02:14:48;96357.47;;;6.36;56.96
6393;BME280;3229;42.674;23.282;2023-02-13T02:17:17;96364.69;;;6.45;56.77
6393;BME280;3229;42.674;23.282;2023-02-13T02:19:49;96366.31;;;6.46;56.65
6393;BME280;3229;42.674;23.282;2023-02-13T02:28:49;96367.09;;;6.48;56.75
6393;BME280;3229;42.674;23.282;2023-02-13T02:31:53;96358.00;;;6.42;56.80
6393;BME280;3229;42.674;23.282;2023-02-13T02:34:31;96362.75;;;6.50;56.86
6393;BME280;3229;42.674;23.282;2023-02-13T02:37:11;96361.91;;;6.49;56.91
6393;BME280;3229;42.674;23.282;2023-02-13T02:39:49;96363.66;;;6.49;57.28
6393;BME280;3229;42.674;23.282;2023-02-13T02:42:27;96372.09;;;6.49;56.92
6393;BME280;3229;42.674;23.282;2023-02-13T02:45:06;96373.03;;;6.47;56.85
6393;BME280;3229;42.674;23.282;2023-02-13T02:47:41;96359.03;;;6.38;56.95
6393;BME280;3229;42.674;23.282;2023-02-13T02:50:33;96388.28;;;6.47;56.89
6393;BME280;3229;42.674;23.282;2023-02-13T02:53:17;96389.09;;;6.47;56.83
6393;BME280;3229;42.674;23.282;2023-02-13T02:55:53;96389.19;;;6.46;56.76
6393;BME280;3229;42.674;23.282;2023-02-13T02:58:25;96389.19;;;6.46;57.03
6393;BME280;3229;42.674;23.282;2023-02-13T03:01:15;96393.44;;;6.45;56.99
6393;BME280;3229;42.674;23.282;2023-02-13T03:04:02;96387.75;;;6.40;56.86
6393;BME280;3229;42.674;23.282;2023-02-13T03:06:50;96392.63;;;6.45;56.92
6393;BME280;3229;42.674;23.282;2023-02-13T03:09:22;96381.69;;;6.43;56.90
6393;BME280;3229;42.674;23.282;2023-02-13T03:12:26;96384.94;;;6.46;56.92
6393;BME280;3229;42.674;23.282;2023-02-13T03:15:12;96371.28;;;6.30;56.90
6393;BME280;3229;42.674;23.282;2023-02-13T03:17:39;96368.50;;;6.35;56.76
6393;BME280;3229;42.674;23.282;2023-02-13T03:20:33;96395.84;;;6.48;56.96
6393;BME280;3229;42.674;23.282;2023-02-13T03:23:28;96391.59;;;6.49;56.84
6393;BME280;3229;42.674;23.282;2023-02-13T03:26:22;96387.34;;;6.49;56.99
6393;BME280;3229;42.674;23.282;2023-02-13T03:29:06;96394.06;;;6.50;56.90
6393;BME280;3229;42.674;23.282;2023-02-13T03:31:59;96389.97;;;6.48;56.84
6393;BME280;3229;42.674;23.282;2023-02-13T03:34:34;96387.41;;;6.48;56.79
6393;BME280;3229;42.674;23.282;2023-02-13T03:37:24;96401.63;;;6.52;56.95
6393;BME280;3229;42.674;23.282;2023-02-13T03:40:13;96394.88;;;6.51;57.04
6393;BME280;3229;42.674;23.282;2023-02-13T03:42:44;96399.81;;;6.54;56.90
6393;BME280;3229;42.674;23.282;2023-02-13T03:45:16;96392.28;;;6.52;56.84
6393;BME280;3229;42.674;23.282;2023-02-13T03:48:03;96388.84;;;6.53;56.85
6393;BME280;3229;42.674;23.282;2023-02-13T03:50:35;96389.66;;;6.54;56.75
6393;BME280;3229;42.674;23.282;2023-02-13T03:53:06;96392.19;;;6.54;56.83
6393;BME280;3229;42.674;23.282;2023-02-13T03:55:35;96394.75;;;6.54;56.82
6393;BME280;3229;42.674;23.282;2023-02-13T03:58:24;96393.84;;;6.55;56.74
6393;BME280;3229;42.674;23.282;2023-02-13T04:01:12;96380.31;;;6.54;56.89
6393;BME280;3229;42.674;23.282;2023-02-13T04:03:44;96392.13;;;6.56;56.64
6393;BME280;3229;42.674;23.282;2023-02-13T04:06:16;96378.81;;;6.50;56.81
6393;BME280;3229;42.674;23.282;2023-02-13T04:08:46;96390.41;;;6.56;56.81
6393;BME280;3229;42.674;23.282;2023-02-13T04:11:15;96392.13;;;6.56;56.80
6393;BME280;3229;42.674;23.282;2023-02-13T04:13:46;96390.41;;;6.56;56.66
6393;BME280;3229;42.674;23.282;2023-02-13T04:16:18;96393.78;;;6.57;56.70
6393;BME280;3229;42.674;23.282;2023-02-13T04:18:48;96398.09;;;6.54;56.69
6393;BME280;3229;42.674;23.282;2023-02-13T04:21:15;96397.38;;;6.52;56.66
6393;BME280;3229;42.674;23.282;2023-02-13T04:23:42;96396.59;;;6.50;56.86
6393;BME280;3229;42.674;23.282;2023-02-13T04:26:14;96385.13;;;6.42;56.87
6393;BME280;3229;42.674;23.282;2023-02-13T04:28:42;96395.03;;;6.48;56.98
6393;BME280;3229;42.674;23.282;2023-02-13T04:31:09;96398.44;;;6.47;56.83
6393;BME280;3229;42.674;23.282;2023-02-13T04:33:35;96395.09;;;6.46;56.76
6393;BME280;3229;42.674;23.282;2023-02-13T04:36:03;96391.72;;;6.46;56.84
6393;BME280;3229;42.674;23.282;2023-02-13T04:38:29;96395.09;;;6.46;56.88
6393;BME280;3229;42.674;23.282;2023-02-13T04:40:56;96355.50;;;6.23;56.86
6393;BME280;3229;42.674;23.282;2023-02-13T04:43:24;96387.34;;;6.49;56.84
6393;BME280;3229;42.674;23.282;2023-02-13T04:45:51;96394.97;;;6.49;56.68
6393;BME280;3229;42.674;23.282;2023-02-13T04:48:18;96384.03;;;6.47;56.73
6393;BME280;3229;42.674;23.282;2023-02-13T04:50:45;96363.59;;;6.32;56.67
6393;BME280;3229;42.674;23.282;2023-02-13T04:53:12;96391.53;;;6.50;56.65
6393;BME280;3229;42.674;23.282;2023-02-13T04:55:39;96392.28;;;6.52;56.74
6393;BME280;3229;42.674;23.282;2023-02-13T04:58:05;96395.66;;;6.53;56.66
6393;BME280;3229;42.674;23.282;2023-02-13T05:00:33;96402.38;;;6.54;56.58
6393;BME280;3229;42.674;23.282;2023-02-13T05:03:04;96409.19;;;6.53;56.53
6393;BME280;3229;42.674;23.282;2023-02-13T05:05:31;96412.53;;;6.54;56.58
6393;BME280;3229;42.674;23.282;2023-02-13T05:07:58;96413.44;;;6.53;56.71
6393;BME280;3229;42.674;23.282;2023-02-13T05:10:24;96417.50;;;6.57;56.63
6393;BME280;3229;42.674;23.282;2023-02-13T05:12:51;96424.22;;;6.58;56.65
6393;BME280;3229;42.674;23.282;2023-02-13T05:15:18;96425.03;;;6.59;56.65
6393;BME280;3229;42.674;23.282;2023-02-13T05:17:47;96421.59;;;6.60;56.68
6393;BME280;3229;42.674;23.282;2023-02-13T05:20:13;96243.78;;;5.48;56.79
6393;BME280;3229;42.674;23.282;2023-02-13T05:22:43;96422.41;;;6.60;56.60
6393;BME280;3229;42.674;23.282;2023-02-13T05:25:27;96430.88;;;6.61;56.70
6393;BME280;3229;42.674;23.282;2023-02-13T05:27:54;96422.41;;;6.60;56.52
6393;BME280;3229;42.674;23.282;2023-02-13T05:30:20;96429.09;;;6.63;56.59
6393;BME280;3229;42.674;23.282;2023-02-13T05:32:49;96423.25;;;6.61;56.52
6393;BME280;3229;42.674;23.282;2023-02-13T05:35:16;96422.19;;;6.65;56.72
6393;BME280;3229;42.674;23.282;2023-02-13T05:37:43;96434.03;;;6.66;56.58
6393;BME280;3229;42.674;23.282;2023-02-13T05:40:11;96349.13;;;6.15;56.49
6393;BME280;3229;42.674;23.282;2023-02-13T05:42:38;96427.22;;;6.66;56.48
6393;BME280;3229;42.674;23.282;2023-02-13T05:45:06;96436.50;;;6.67;56.76
6393;BME280;3229;42.674;23.282;2023-02-13T05:47:33;96434.78;;;6.68;56.46
6393;BME280;3229;42.674;23.282;2023-02-13T05:50:02;96433.13;;;6.67;56.58
6393;BME280;3229;42.674;23.282;2023-02-13T05:52:29;96449.97;;;6.69;56.51
6393;BME280;3229;42.674;23.282;2023-02-13T05:54:55;96438.22;;;6.67;56.59
6393;BME280;3229;42.674;23.282;2023-02-13T05:57:22;96427.34;;;6.63;56.55
6393;BME280;3229;42.674;23.282;2023-02-13T05:59:49;96443.00;;;6.73;56.41
6393;BME280;3229;42.674;23.282;2023-02-13T06:02:16;96448.84;;;6.75;56.37
6393;BME280;3229;42.674;23.282;2023-02-13T06:04:43;96445.41;;;6.76;56.41
6393;BME280;3229;42.674;23.282;2023-02-13T06:07:11;96458.00;;;6.79;56.39
6393;BME280;3229;42.674;23.282;2023-02-13T06:09:37;96451.19;;;6.79;56.34
6393;BME280;3229;42.674;23.282;2023-02-13T06:12:05;96446.72;;;6.85;56.81
6393;BME280;3229;42.674;23.282;2023-02-13T06:14:31;96449.72;;;7.79;95.57
6393;BME280;3229;42.674;23.282;2023-02-13T06:16:59;96450.56;;;8.94;94.64
6393;BME280;3229;42.674;23.282;2023-02-13T06:19:26;96450.72;;;9.95;89.42
6393;BME280;3229;42.674;23.282;2023-02-13T06:21:53;96449.84;;;10.80;84.59
6393;BME280;3229;42.674;23.282;2023-02-13T06:24:21;96457.22;;;11.52;80.73
6393;BME280;3229;42.674;23.282;2023-02-13T06:26:48;96461.72;;;12.14;78.30
6393;BME280;3229;42.674;23.282;2023-02-13T06:29:15;96468.22;;;12.43;76.00
6393;BME280;3229;42.674;23.282;2023-02-13T06:31:41;96470.28;;;12.38;73.56
6393;BME280;3229;42.674;23.282;2023-02-13T06:34:08;96478.41;;;12.19;71.49
6393;BME280;3229;42.674;23.282;2023-02-13T06:36:35;96470.53;;;11.97;69.69
6393;BME280;3229;42.674;23.282;2023-02-13T06:39:03;96466.78;;;11.75;68.27
6393;BME280;3229;42.674;23.282;2023-02-13T06:41:31;96469.84;;;11.55;67.30
6393;BME280;3229;42.674;23.282;2023-02-13T06:43:58;96481.28;;;11.37;66.38
6393;BME280;3229;42.674;23.282;2023-02-13T06:46:24;96475.59;;;11.19;65.58
6393;BME280;3229;42.674;23.282;2023-02-13T06:48:51;96470.16;;;10.96;64.92
6393;BME280;3229;42.674;23.282;2023-02-13T06:51:18;96478.81;;;10.81;64.20
6393;BME280;3229;42.674;23.282;2023-02-13T06:53:45;96477.19;;;10.66;63.76
6393;BME280;3229;42.674;23.282;2023-02-13T06:56:11;96472.25;;;10.48;63.25
6393;BME280;3229;42.674;23.282;2023-02-13T06:58:40;96463.41;;;10.40;62.91
6393;BME280;3229;42.674;23.282;2023-02-13T07:01:06;96473.28;;;10.32;62.69
6393;BME280;3229;42.674;23.282;2023-02-13T07:03:33;96479.75;;;10.23;62.17
6393;BME280;3229;42.674;23.282;2023-02-13T07:06:00;96480.22;;;10.15;61.83
6393;BME280;3229;42.674;23.282;2023-02-13T07:08:27;96475.53;;;10.08;61.55
6393;BME280;3229;42.674;23.282;2023-02-13T07:10:54;96474.19;;;10.02;61.01
6393;BME280;3229;42.674;23.282;2023-02-13T07:13:21;96471.91;;;9.97;60.81
6393;BME280;3229;42.674;23.282;2023-02-13T07:15:49;96452.44;;;9.80;60.63
6393;BME280;3229;42.674;23.282;2023-02-13T07:18:16;96473.25;;;9.89;60.34
6393;BME280;3229;42.674;23.282;2023-02-13T07:20:43;96476.06;;;9.84;60.09
6393;BME280;3229;42.674;23.282;2023-02-13T07:23:10;96480.34;;;9.84;59.96
6393;BME280;3229;42.674;23.282;2023-02-13T07:25:36;96477.25;;;9.78;59.54
6393;BME280;3229;42.674;23.282;2023-02-13T07:28:05;96478.00;;;9.80;59.08
6393;BME280;3229;42.674;23.282;2023-02-13T07:30:33;96479.97;;;9.75;59.09
6393;BME280;3229;42.674;23.282;2023-02-13T07:33:02;96487.63;;;9.75;58.92
6393;BME280;3229;42.674;23.282;2023-02-13T07:35:30;96489.47;;;9.73;58.66
6393;BME280;3229;42.674;23.282;2023-02-13T07:37:56;96487.81;;;9.72;58.58
6393;BME280;3229;42.674;23.282;2023-02-13T07:40:24;96479.41;;;9.70;58.48
6393;BME280;3229;42.674;23.282;2023-02-13T07:42:51;96485.53;;;9.68;58.15
6393;BME280;3229;42.674;23.282;2023-02-13T07:45:18;96477.13;;;9.66;58.18
6393;BME280;3229;42.674;23.282;2023-02-13T07:47:45;96486.53;;;9.65;58.03
6393;BME280;3229;42.674;23.282;2023-02-13T07:50:13;96471.47;;;9.61;57.74
6393;BME280;3229;42.674;23.282;2023-02-13T07:52:40;96474.75;;;9.63;57.61
6393;BME280;3229;42.674;23.282;2023-02-13T07:55:07;96490.56;;;9.69;57.41
6393;BME280;3229;42.674;23.282;2023-02-13T07:57:35;96480.97;;;9.73;57.29
6393;BME280;3229;42.674;23.282;2023-02-13T08:00:03;96474.31;;;9.70;57.07
6393;BME280;3229;42.674;23.282;2023-02-13T08:02:30;96485.00;;;9.77;57.03
6393;BME280;3229;42.674;23.282;2023-02-13T08:04:56;96484.91;;;9.78;56.99
6393;BME280;3229;42.674;23.282;2023-02-13T08:07:25;96488.94;;;9.83;56.62
6393;BME280;3229;42.674;23.282;2023-02-13T08:09:52;96487.13;;;9.85;56.46
6393;BME280;3229;42.674;23.282;2023-02-13T08:12:36;96472.94;;;9.79;56.17
6393;BME280;3229;42.674;23.282;2023-02-13T08:15:04;96490.31;;;9.88;56.25
6393;BME280;3229;42.674;23.282;2023-02-13T08:17:30;96477.44;;;9.90;56.23
6393;BME280;3229;42.674;23.282;2023-02-13T08:19:57;96475.53;;;9.93;56.02
6393;BME280;3229;42.674;23.282;2023-02-13T08:22:25;96478.00;;;9.95;55.89
6393;BME280;3229;42.674;23.282;2023-02-13T08:24:52;96469.41;;;9.96;55.72
6393;BME280;3229;42.674;23.282;2023-02-13T08:27:19;96479.28;;;10.02;55.50
6393;BME280;3229;42.674;23.282;2023-02-13T08:29:47;96488.59;;;10.03;55.57
6393;BME280;3229;42.674;23.282;2023-02-13T08:32:14;96482.56;;;10.04;55.33
6393;BME280;3229;42.674;23.282;2023-02-13T08:34:41;96480.75;;;10.06;55.36
6393;BME280;3229;42.674;23.282;2023-02-13T08:37:08;96476.47;;;10.07;55.32
6393;BME280;3229;42.674;23.282;2023-02-13T08:39:36;96473.16;;;10.04;54.98
6393;BME280;3229;42.674;23.282;2023-02-13T08:42:03;96482.03;;;10.13;55.17
6393;BME280;3229;42.674;23.282;2023-02-13T08:44:30;96469.41;;;10.10;55.07
6393;BME280;3229;42.674;23.282;2023-02-13T08:46:57;96482.78;;;10.15;54.77
6393;BME280;3229;42.674;23.282;2023-02-13T08:49:26;96491.16;;;10.17;54.89
6393;BME280;3229;42.674;23.282;2023-02-13T08:51:53;96485.13;;;10.18;54.74
6393;BME280;3229;42.674;23.282;2023-02-13T08:54:20;96484.13;;;10.21;54.70
6393;BME280;3229;42.674;23.282;2023-02-13T08:56:48;96487.38;;;10.24;54.52
6393;BME280;3229;42.674;23.282;2023-02-13T08:59:15;96483.06;;;10.25;54.42
6393;BME280;3229;42.674;23.282;2023-02-13T09:01:42;96486.91;;;10.32;54.45
6393;BME280;3229;42.674;23.282;2023-02-13T09:04:09;96484.97;;;10.36;54.18
6393;BME280;3229;42.674;23.282;2023-02-13T09:06:36;96472.81;;;10.39;54.20
6393;BME280;3229;42.674;23.282;2023-02-13T09:09:04;96475.84;;;10.46;54.04
6393;BME280;3229;42.674;23.282;2023-02-13T09:11:31;96472.19;;;10.50;53.85
6393;BME280;3229;42.674;23.282;2023-02-13T09:13:59;96477.66;;;10.58;53.61
6393;BME280;3229;42.674;23.282;2023-02-13T09:16:26;96483.22;;;10.65;53.73
6393;BME280;3229;42.674;23.282;2023-02-13T09:18:52;96476.72;;;10.73;53.56
6393;BME280;3229;42.674;23.282;2023-02-13T09:21:21;96463.00;;;10.74;53.39
6393;BME280;3229;42.674;23.282;2023-02-13T09:23:48;96478.34;;;10.89;53.44
6393;BME280;3229;42.674;23.282;2023-02-13T09:26:18;96471.00;;;10.97;53.30
6393;BME280;3229;42.674;23.282;2023-02-13T09:28:45;96470.31;;;11.08;53.28
6393;BME280;3229;42.674;23.282;2023-02-13T09:31:14;96463.25;;;11.11;52.88
6393;BME280;3229;42.674;23.282;2023-02-13T09:33:42;96473.25;;;11.28;52.91
6393;BME280;3229;42.674;23.282;2023-02-13T09:36:10;96451.53;;;11.34;52.55
6393;BME280;3229;42.674;23.282;2023-02-13T09:38:38;96463.06;;;11.54;52.40
6393;BME280;3229;42.674;23.282;2023-02-13T09:41:10;96464.91;;;11.65;52.15
6393;BME280;3229;42.674;23.282;2023-02-13T09:43:43;96454.31;;;11.84;51.80
6393;BME280;3229;42.674;23.282;2023-02-13T09:46:16;96457.16;;;12.04;51.64
6393;BME280;3229;42.674;23.282;2023-02-13T09:48:48;96450.81;;;12.23;51.47
6393;BME280;3229;42.674;23.282;2023-02-13T09:51:17;96456.00;;;12.47;51.12
6393;BME280;3229;42.674;23.282;2023-02-13T09:53:51;96451.00;;;12.69;50.85
6393;BME280;3229;42.674;23.282;2023-02-13T09:56:23;96442.13;;;12.86;50.60
6393;BME280;3229;42.674;23.282;2023-02-13T09:58:58;96442.00;;;13.00;50.36
6393;BME280;3229;42.674;23.282;2023-02-13T10:01:32;96435.47;;;13.07;50.11
6393;BME280;3229;42.674;23.282;2023-02-13T10:04:24;96429.63;;;13.05;50.22
6393;BME280;3229;42.674;23.282;2023-02-13T10:06:59;96425.91;;;13.10;50.15
6393;BME280;3229;42.674;23.282;2023-02-13T10:09:37;96421.38;;;13.13;49.96
6393;BME280;3229;42.674;23.282;2023-02-13T10:12:21;96425.94;;;13.21;49.54
6393;BME280;3229;42.674;23.282;2023-02-13T10:15:00;96381.78;;;13.04;49.67
6393;BME280;3229;42.674;23.282;2023-02-13T10:17:35;96410.34;;;13.24;49.79
6393;BME280;3229;42.674;23.282;2023-02-13T10:20:06;96404.47;;;13.22;49.56
6393;BME280;3229;42.674;23.282;2023-02-13T10:22:38;96400.72;;;13.15;49.42
6393;BME280;3229;42.674;23.282;2023-02-13T10:25:13;96403.97;;;13.17;49.39
6393;BME280;3229;42.674;23.282;2023-02-13T10:27:45;96399.06;;;13.14;49.13
6393;BME280;3229;42.674;23.282;2023-02-13T10:30:17;96387.25;;;13.11;49.20
6393;BME280;3229;42.674;23.282;2023-02-13T10:32:57;96384.69;;;13.11;49.19
6393;BME280;3229;42.674;23.282;2023-02-13T10:35:40;96371.84;;;13.00;49.01
6393;BME280;3229;42.674;23.282;2023-02-13T10:38:15;96358.72;;;12.92;49.04
6393;BME280;3229;42.674;23.282;2023-02-13T10:40:57;96381.53;;;13.07;48.98
6393;BME280;3229;42.674;23.282;2023-02-13T10:43:37;96375.09;;;13.02;48.96
6393;BME280;3229;42.674;23.282;2023-02-13T10:46:12;96368.31;;;13.01;48.71
6393;BME280;3229;42.674;23.282;2023-02-13T10:48:57;96368.41;;;12.99;48.51
6393;BME280;3229;42.674;23.282;2023-02-13T10:51:29;96366.78;;;12.98;48.69
6393;BME280;3229;42.674;23.282;2023-02-13T10:54:18;96359.31;;;12.95;48.56
6393;BME280;3229;42.674;23.282;2023-02-13T10:56:54;96363.63;;;12.95;48.46
6393;BME280;3229;42.674;23.282;2023-02-13T10:59:47;96353.34;;;12.95;48.60
6393;BME280;3229;42.674;23.282;2023-02-13T11:02:21;96348.13;;;12.96;48.55
6393;BME280;3229;42.674;23.282;2023-02-13T11:04:51;96348.13;;;12.96;48.33
6393;BME280;3229;42.674;23.282;2023-02-13T11:07:22;96337.94;;;12.95;48.31
6393;BME280;3229;42.674;23.282;2023-02-13T11:09:51;96342.84;;;12.98;48.26
6393;BME280;3229;42.674;23.282;2023-02-13T11:12:26;96303.25;;;12.78;48.02
6393;BME280;3229;42.674;23.282;2023-02-13T11:14:55;96333.53;;;12.97;48.14
6393;BME280;3229;42.674;23.282;2023-02-13T11:17:23;96331.16;;;12.94;48.08
6393;BME280;3229;42.674;23.282;2023-02-13T11:19:54;96321.50;;;12.97;48.06
6393;BME280;3229;42.674;23.282;2023-02-13T11:22:29;96305.22;;;12.86;47.77
6393;BME280;3229;42.674;23.282;2023-02-13T11:24:58;96315.53;;;12.97;47.86
6393;BME280;3229;42.674;23.282;2023-02-13T11:27:29;96271.72;;;12.76;47.89
6393;BME280;3229;42.674;23.282;2023-02-13T11:29:58;96309.34;;;12.99;48.00
6393;BME280;3229;42.674;23.282;2023-02-13T11:32:27;96304.00;;;13.02;47.78
6393;BME280;3229;42.674;23.282;2023-02-13T11:34:55;96303.91;;;13.04;47.82
6393;BME280;3229;42.674;23.282;2023-02-13T11:37:26;96291.16;;;13.02;47.50
6393;BME280;3229;42.674;23.282;2023-02-13T11:39:55;96293.38;;;13.07;47.65
6393;BME280;3229;42.674;23.282;2023-02-13T11:42:28;96281.25;;;13.09;47.51
6393;BME280;3229;42.674;23.282;2023-02-13T11:44:59;96284.50;;;13.11;47.65
6393;BME280;3229;42.674;23.282;2023-02-13T11:47:44;96272.81;;;13.07;47.48
6393;BME280;3229;42.674;23.282;2023-02-13T11:50:21;96262.13;;;13.13;47.28
6393;BME280;3229;42.674;23.282;2023-02-13T11:52:56;96256.84;;;13.15;47.13
6393;BME280;3229;42.674;23.282;2023-02-13T11:55:26;96246.69;;;13.13;47.35
6393;BME280;3229;42.674;23.282;2023-02-13T11:57:56;96244.69;;;13.17;47.34
6393;BME280;3229;42.674;23.282;2023-02-13T12:00:30;96239.34;;;13.20;47.11
6393;BME280;3229;42.674;23.282;2023-02-13T12:03:02;96236.66;;;13.21;47.27
6393;BME280;3229;42.674;23.282;2023-02-13T12:06:03;96235.75;;;13.22;46.84
6393;BME280;3229;42.674;23.282;2023-02-13T12:08:33;96228.88;;;13.23;47.04
6393;BME280;3229;42.674;23.282;2023-02-13T12:11:02;96225.47;;;13.22;46.96
6393;BME280;3229;42.674;23.282;2023-02-13T12:13:32;96221.97;;;13.23;46.96
6393;BME280;3229;42.674;23.282;2023-02-13T12:16:04;96212.38;;;13.14;46.68
6393;BME280;3229;42.674;23.282;2023-02-13T12:18:36;96229.56;;;13.25;46.87
6393;BME280;3229;42.674;23.282;2023-02-13T12:21:16;96230.38;;;13.25;46.74
6393;BME280;3229;42.674;23.282;2023-02-13T12:23:51;96204.53;;;13.16;46.46
6393;BME280;3229;42.674;23.282;2023-02-13T12:26:27;96224.41;;;13.25;46.71
6393;BME280;3229;42.674;23.282;2023-02-13T12:29:14;96222.56;;;13.27;46.47
6393;BME280;3229;42.674;23.282;2023-02-13T12:31:54;96214.03;;;13.26;46.36
6393;BME280;3229;42.674;23.282;2023-02-13T12:37:41;96136.69;;;12.85;46.43
6393;BME280;3229;42.674;23.282;2023-02-13T12:40:27;96213.78;;;13.29;46.20
6393;BME280;3229;42.674;23.282;2023-02-13T12:43:07;96203.50;;;13.29;46.24
6393;BME280;3229;42.674;23.282;2023-02-13T12:45:42;96192.41;;;13.29;45.99
6393;BME280;3229;42.674;23.282;2023-02-13T12:48:23;96187.88;;;13.33;46.09
6393;BME280;3229;42.674;23.282;2023-02-13T12:50:57;96182.84;;;13.31;46.06
6393;BME280;3229;42.674;23.282;2023-02-13T12:53:47;96190.31;;;13.34;46.11
6393;BME280;3229;42.674;23.282;2023-02-13T12:56:37;96182.03;;;13.30;46.05
6393;BME280;3229;42.674;23.282;2023-02-13T12:59:12;96182.59;;;13.34;45.87
6393;BME280;3229;42.674;23.282;2023-02-13T13:02:05;96180.97;;;13.33;45.88
6393;BME280;3229;42.674;23.282;2023-02-13T13:04:51;96178.19;;;13.25;45.86
6393;BME280;3229;42.674;23.282;2023-02-13T13:07:38;96175.72;;;13.23;45.94
6393;BME280;3229;42.674;23.282;2023-02-13T13:10:22;96174.09;;;13.22;45.68
6393;BME280;3229;42.674;23.282;2023-02-13T13:12:56;96149.78;;;13.04;45.89
6393;BME280;3229;42.674;23.282;2023-02-13T13:15:33;96149.31;;;13.10;45.83
6393;BME280;3229;42.674;23.282;2023-02-13T13:18:13;96165.78;;;13.19;45.77
6393;BME280;3229;42.674;23.282;2023-02-13T13:20:53;96159.81;;;13.18;45.70
6393;BME280;3229;42.674;23.282;2023-02-13T13:23:28;96160.78;;;13.17;45.67
6393;BME280;3229;42.674;23.282;2023-02-13T13:26:06;96092.94;;;12.75;45.54
6393;BME280;3229;42.674;23.282;2023-02-13T13:28:40;96151.66;;;13.13;45.44
6393;BME280;3229;42.674;23.282;2023-02-13T13:31:09;96139.03;;;12.99;45.74
6393;BME280;3229;42.674;23.282;2023-02-13T13:33:40;96151.88;;;13.10;45.54
6393;BME280;3229;42.674;23.282;2023-02-13T13:36:13;96149.44;;;13.09;45.47
6393;BME280;3229;42.674;23.282;2023-02-13T13:38:48;96150.34;;;13.07;45.52
6393;BME280;3229;42.674;23.282;2023-02-13T13:41:23;96144.53;;;13.05;45.55
6393;BME280;3229;42.674;23.282;2023-02-13T13:44:18;96153.19;;;13.04;45.54
6393;BME280;3229;42.674;23.282;2023-02-13T13:46:51;96159.34;;;13.02;45.66
6393;BME280;3229;42.674;23.282;2023-02-13T13:49:37;96148.28;;;13.01;45.55
6393;BME280;3229;42.674;23.282;2023-02-13T13:52:20;96147.56;;;12.99;45.68